createdAt,value
2019-04-06T00:02:15.670Z,9.60
2019-04-06T00:04:42.104Z,9.60
2019-04-06T00:07:08.747Z,9.60
2019-04-06T00:09:35.350Z,9.60
2019-04-06T00:12:01.981Z,9.50
2019-04-06T00:14:30.587Z,9.50
2019-04-06T00:16:56.922Z,9.40
2019-04-06T00:19:23.255Z,9.30
2019-04-06T00:21:49.877Z,9.30
2019-04-06T00:24:16.218Z,9.30
2019-04-06T00:26:42.676Z,9.30
2019-04-06T00:29:09.372Z,9.30
2019-04-06T00:31:36.010Z,9.30
2019-04-06T00:34:02.575Z,9.20
2019-04-06T00:36:29.179Z,9.30
2019-04-06T00:38:55.498Z,9.30
2019-04-06T00:41:22.146Z,9.20
2019-04-06T00:43:48.782Z,9.20
2019-04-06T00:46:15.413Z,9.20
2019-04-06T00:48:41.732Z,9.20
2019-04-06T00:51:08.036Z,9.20
2019-04-06T00:53:34.344Z,9.10
2019-04-06T00:56:00.970Z,9.20
2019-04-06T00:58:27.301Z,9.30
2019-04-06T01:00:53.676Z,9.30
2019-04-06T01:03:20.049Z,9.30
2019-04-06T01:05:46.719Z,9.30
2019-04-06T01:08:13.367Z,9.20
2019-04-06T01:10:39.721Z,9.10
2019-04-06T01:13:06.028Z,9.10
2019-04-06T01:15:32.703Z,9.10
2019-04-06T01:17:59.387Z,9.00
2019-04-06T01:20:25.782Z,9.10
2019-04-06T01:22:52.487Z,9.10
2019-04-06T01:25:18.873Z,9.00
2019-04-06T01:27:45.208Z,9.00
2019-04-06T01:30:12.084Z,8.90
2019-04-06T01:32:38.706Z,8.80
2019-04-06T01:35:05.649Z,8.80
2019-04-06T01:37:32.416Z,8.80
2019-04-06T01:39:59.197Z,8.80
2019-04-06T01:42:25.591Z,8.80
2019-04-06T01:44:51.963Z,8.70
2019-04-06T01:47:18.320Z,8.70
2019-04-06T01:49:44.692Z,8.70
2019-04-06T01:52:11.005Z,8.80
2019-04-06T01:54:37.330Z,8.80
2019-04-06T01:57:03.742Z,8.80
2019-04-06T01:59:30.386Z,8.80
2019-04-06T02:02:01.873Z,8.70
2019-04-06T02:04:28.181Z,8.70
2019-04-06T02:06:54.527Z,8.80
2019-04-06T02:09:20.859Z,8.70
2019-04-06T02:11:47.193Z,8.60
2019-04-06T02:14:13.499Z,8.50
2019-04-06T02:16:39.858Z,8.50
2019-04-06T02:19:06.457Z,8.60
2019-04-06T02:21:32.790Z,8.60
2019-04-06T02:23:59.433Z,8.60
2019-04-06T02:26:30.958Z,8.60
2019-04-06T02:28:54.040Z,8.60
2019-04-06T02:31:38.781Z,8.60
2019-04-06T02:34:07.290Z,8.60
2019-04-06T02:36:36.367Z,8.60
2019-04-06T02:39:06.594Z,8.60
2019-04-06T02:41:46.827Z,8.60
2019-04-06T02:44:13.366Z,8.60
2019-04-06T02:46:39.767Z,8.60
2019-04-06T02:49:06.143Z,8.60
2019-04-06T02:51:32.958Z,8.60
2019-04-06T02:53:59.313Z,8.50
2019-04-06T02:56:25.914Z,8.40
2019-04-06T02:58:52.322Z,8.30
2019-04-06T03:01:18.702Z,8.30
2019-04-06T03:03:45.023Z,8.30
2019-04-06T03:06:11.586Z,8.40
2019-04-06T03:08:38.455Z,8.40
2019-04-06T03:11:04.756Z,8.40
2019-04-06T03:13:31.480Z,8.40
2019-04-06T03:15:57.878Z,8.40
2019-04-06T03:18:24.212Z,8.30
2019-04-06T03:20:50.969Z,8.30
2019-04-06T03:23:17.657Z,8.30
2019-04-06T03:25:44.308Z,8.30
2019-04-06T03:28:10.970Z,8.20
2019-04-06T03:30:37.654Z,8.20
2019-04-06T03:33:04.034Z,8.20
2019-04-06T03:35:30.967Z,8.20
2019-04-06T03:37:57.900Z,8.30
2019-04-06T03:40:24.558Z,8.20
2019-04-06T03:42:50.927Z,8.20
2019-04-06T03:45:17.402Z,8.20
2019-04-06T03:47:43.724Z,8.20
2019-04-06T03:50:10.176Z,8.30
2019-04-06T03:52:36.471Z,8.30
2019-04-06T03:55:05.893Z,8.30
2019-04-06T03:57:32.249Z,8.30
2019-04-06T03:59:58.586Z,8.20
2019-04-06T04:02:25.140Z,8.10
2019-04-06T04:04:51.450Z,8.20
2019-04-06T04:07:17.804Z,8.20
2019-04-06T04:09:44.522Z,8.20
2019-04-06T04:12:31.019Z,8.20
2019-04-06T04:14:57.668Z,8.10
2019-04-06T04:17:24.421Z,8.10
2019-04-06T04:19:51.047Z,8.20
2019-04-06T04:22:17.371Z,8.20
2019-04-06T04:24:43.715Z,8.10
2019-04-06T04:27:10.050Z,8.00
2019-04-06T04:29:36.438Z,8.00
2019-04-06T04:32:02.753Z,8.00
2019-04-06T04:34:29.081Z,8.00
2019-04-06T04:36:55.497Z,8.00
2019-04-06T04:39:21.823Z,8.00
2019-04-06T04:41:48.386Z,7.90
2019-04-06T04:44:15.012Z,7.80
2019-04-06T04:46:41.441Z,7.70
2019-04-06T04:49:08.126Z,7.70
2019-04-06T04:51:37.223Z,7.80
2019-04-06T04:54:03.832Z,7.80
2019-04-06T04:56:30.194Z,7.70
2019-04-06T04:58:56.586Z,7.70
2019-04-06T05:01:22.981Z,7.60
2019-04-06T05:03:49.330Z,7.60
2019-04-06T05:06:17.619Z,7.50
2019-04-06T05:08:44.644Z,7.70
2019-04-06T05:11:10.964Z,7.70
2019-04-06T05:13:37.282Z,7.70
2019-04-06T05:16:12.478Z,7.70
2019-04-06T05:18:41.165Z,7.80
2019-04-06T05:21:09.822Z,7.80
2019-04-06T05:23:37.698Z,7.90
2019-04-06T05:26:05.385Z,8.00
2019-04-06T05:28:32.153Z,8.00
2019-04-06T05:30:58.528Z,8.10
2019-04-06T05:33:25.150Z,8.10
2019-04-06T05:35:52.385Z,8.30
2019-04-06T05:38:18.729Z,8.40
2019-04-06T05:40:45.081Z,8.50
2019-04-06T05:43:11.690Z,8.50
2019-04-06T05:45:38.057Z,8.60
2019-04-06T05:48:05.350Z,8.70
2019-04-06T05:50:31.698Z,8.70
2019-04-06T05:52:58.339Z,8.80
2019-04-06T05:55:25.069Z,8.80
2019-04-06T05:58:02.349Z,8.90
2019-04-06T06:00:20.221Z,9.10
2019-04-06T06:02:46.653Z,9.30
2019-04-06T06:05:14.044Z,9.60
2019-04-06T06:07:40.405Z,9.70
2019-04-06T06:10:06.914Z,9.90
2019-04-06T06:12:33.351Z,9.70
2019-04-06T06:14:59.647Z,9.90
2019-04-06T06:17:25.977Z,10.10
2019-04-06T06:19:52.752Z,10.30
2019-04-06T06:22:19.442Z,10.30
2019-04-06T06:24:45.814Z,10.50
2019-04-06T06:27:12.425Z,10.80
2019-04-06T06:29:38.749Z,11.10
2019-04-06T06:32:05.151Z,11.30
2019-04-06T06:34:31.822Z,11.40
2019-04-06T06:36:58.181Z,11.50
2019-04-06T06:39:24.902Z,11.60
2019-04-06T06:41:51.533Z,11.80
2019-04-06T06:44:17.858Z,12.10
2019-04-06T06:46:44.208Z,12.30
2019-04-06T06:49:10.525Z,12.30
2019-04-06T06:51:37.300Z,12.40
2019-04-06T06:54:04.099Z,12.70
2019-04-06T06:56:30.475Z,12.90
2019-04-06T06:58:56.876Z,13.00
2019-04-06T07:01:23.243Z,12.90
2019-04-06T07:03:49.749Z,13.00
2019-04-06T07:06:16.184Z,13.10
2019-04-06T07:08:42.543Z,13.20
2019-04-06T07:11:08.984Z,13.30
2019-04-06T07:13:35.289Z,13.50
2019-04-06T07:16:01.641Z,13.70
2019-04-06T07:18:28.461Z,13.80
2019-04-06T07:20:55.281Z,13.80
2019-04-06T07:23:21.937Z,14.00
2019-04-06T07:25:57.725Z,14.20
2019-04-06T07:28:16.864Z,14.30
2019-04-06T07:30:43.356Z,14.70
2019-04-06T07:33:10.026Z,14.80
2019-04-06T07:35:36.693Z,14.90
2019-04-06T07:38:03.387Z,15.10
2019-04-06T07:40:30.057Z,15.20
2019-04-06T07:42:56.497Z,15.20
2019-04-06T07:45:23.006Z,15.20
2019-04-06T07:47:49.977Z,15.20
2019-04-06T07:50:16.851Z,15.30
2019-04-06T07:52:44.345Z,15.50
2019-04-06T07:55:10.868Z,15.50
2019-04-06T07:57:37.354Z,15.60
2019-04-06T08:00:06.653Z,15.60
2019-04-06T08:02:33.493Z,15.80
2019-04-06T08:04:59.794Z,15.90
2019-04-06T08:07:26.466Z,16.20
2019-04-06T08:09:54.384Z,16.10
2019-04-06T08:12:21.219Z,16.10
2019-04-06T08:14:48.153Z,16.30
2019-04-06T08:17:14.604Z,16.40
2019-04-06T08:19:41.342Z,16.50
2019-04-06T08:22:07.761Z,16.40
2019-04-06T08:24:34.450Z,16.10
2019-04-06T08:27:01.362Z,16.20
2019-04-06T08:29:27.962Z,16.60
2019-04-06T08:31:54.526Z,16.80
2019-04-06T08:34:21.494Z,16.60
2019-04-06T08:36:48.247Z,16.90
2019-04-06T08:39:14.656Z,16.80
2019-04-06T08:41:41.416Z,16.70
2019-04-06T08:44:08.168Z,16.90
2019-04-06T08:46:34.865Z,17.20
2019-04-06T08:49:01.536Z,17.10
2019-04-06T08:51:29.196Z,17.30
2019-04-06T08:53:55.514Z,17.30
2019-04-06T08:56:22.233Z,17.50
2019-04-06T08:58:49.605Z,17.60
2019-04-06T09:01:16.036Z,17.60
2019-04-06T09:03:42.346Z,17.80
2019-04-06T09:06:08.727Z,17.90
2019-04-06T09:08:35.062Z,18.20
2019-04-06T09:11:01.633Z,18.40
2019-04-06T09:13:28.069Z,18.30
2019-04-06T09:15:54.727Z,18.40
2019-04-06T09:18:21.588Z,18.60
2019-04-06T09:20:48.242Z,18.70
2019-04-06T09:23:14.668Z,18.80
2019-04-06T09:25:41.316Z,18.90
2019-04-06T09:28:07.675Z,18.80
2019-04-06T09:30:33.981Z,18.70
2019-04-06T09:33:00.719Z,18.90
2019-04-06T09:35:27.087Z,18.90
2019-04-06T09:37:53.794Z,19.00
2019-04-06T09:40:20.352Z,18.70
2019-04-06T09:42:47.074Z,18.90
2019-04-06T09:45:30.843Z,18.70
2019-04-06T09:47:59.193Z,19.00
2019-04-06T09:50:30.083Z,19.00
2019-04-06T09:52:58.689Z,19.10
2019-04-06T09:55:29.846Z,19.40
2019-04-06T09:58:13.368Z,19.50
2019-04-06T10:00:42.563Z,19.50
2019-04-06T10:03:13.747Z,19.70
2019-04-06T10:05:50.976Z,19.70
2019-04-06T10:08:31.467Z,19.70
2019-04-06T10:11:00.062Z,19.90
2019-04-06T10:13:43.524Z,20.00
2019-04-06T10:16:20.897Z,20.00
2019-04-06T10:18:52.251Z,20.00
2019-04-06T10:21:21.386Z,19.90
2019-04-06T10:24:05.176Z,20.20
2019-04-06T10:26:36.870Z,20.30
2019-04-06T10:29:05.181Z,20.40
2019-04-06T10:31:31.878Z,20.20
2019-04-06T10:34:05.817Z,20.10
2019-04-06T10:36:34.058Z,20.20
2019-04-06T10:39:01.532Z,20.40
2019-04-06T10:41:34.535Z,20.30
2019-04-06T10:44:09.863Z,20.40
2019-04-06T10:46:38.566Z,20.60
2019-04-06T10:49:25.901Z,20.40
2019-04-06T10:51:58.313Z,20.40
2019-04-06T10:54:36.649Z,20.40
2019-04-06T10:57:11.196Z,20.50
2019-04-06T11:00:00.202Z,20.70
2019-04-06T11:02:36.120Z,20.90
2019-04-06T11:05:06.845Z,21.10
2019-04-06T11:07:51.973Z,21.00
2019-04-06T11:10:30.218Z,21.10
2019-04-06T11:13:11.807Z,21.00
2019-04-06T11:15:43.112Z,21.10
2019-04-06T11:18:28.170Z,21.50
2019-04-06T11:20:56.652Z,21.70
2019-04-06T11:23:30.614Z,21.70
2019-04-06T11:25:57.393Z,21.80
2019-04-06T11:28:28.864Z,21.70
2019-04-06T11:31:00.023Z,21.60
2019-04-06T11:33:37.618Z,21.60
2019-04-06T11:36:24.424Z,21.60
2019-04-06T11:39:07.753Z,21.90
2019-04-06T11:41:37.470Z,22.90
2019-04-06T11:44:08.751Z,24.10
2019-04-06T11:46:43.352Z,25.10
2019-04-06T11:49:11.681Z,26.60
2019-04-06T11:51:56.426Z,27.10
2019-04-06T11:54:24.724Z,28.60
2019-04-06T11:56:59.101Z,29.70
2019-04-06T11:59:43.860Z,30.20
2019-04-06T12:02:19.578Z,31.20
2019-04-06T12:04:57.821Z,29.60
2019-04-06T12:07:26.174Z,30.60
2019-04-06T12:10:00.540Z,31.00
2019-04-06T12:12:36.036Z,30.90
2019-04-06T12:15:06.141Z,30.80
2019-04-06T12:17:37.700Z,29.60
2019-04-06T12:20:19.643Z,31.00
2019-04-06T12:22:58.282Z,31.50
2019-04-06T12:25:30.817Z,31.90
2019-04-06T12:28:00.529Z,31.00
2019-04-06T12:30:45.762Z,30.10
2019-04-06T12:33:23.132Z,30.10
2019-04-06T12:36:04.851Z,29.00
2019-04-06T12:38:37.149Z,28.00
2019-04-06T12:41:18.279Z,28.20
2019-04-06T12:43:47.780Z,28.80
2019-04-06T12:46:16.350Z,28.10
2019-04-06T12:48:56.682Z,27.90
2019-04-06T12:51:25.164Z,27.30
2019-04-06T12:53:59.579Z,28.00
2019-04-06T12:56:33.727Z,28.80
2019-04-06T12:59:06.298Z,29.60
2019-04-06T13:01:51.344Z,27.90
2019-04-06T13:04:23.952Z,26.40
2019-04-06T13:06:59.453Z,24.90
2019-04-06T13:09:44.568Z,24.40
2019-04-06T13:12:39.249Z,24.70
2019-04-06T13:15:08.224Z,24.80
2019-04-06T13:17:53.900Z,24.30
2019-04-06T13:20:39.257Z,23.70
2019-04-06T13:23:10.703Z,22.80
2019-04-06T13:25:55.446Z,22.70
2019-04-06T13:28:24.329Z,22.60
2019-04-06T13:31:06.369Z,23.60
2019-04-06T13:33:35.044Z,23.90
2019-04-06T13:36:03.805Z,25.00
2019-04-06T13:38:48.982Z,25.20
2019-04-06T13:41:21.698Z,25.90
2019-04-06T13:44:07.003Z,25.60
2019-04-06T13:46:41.058Z,25.40
2019-04-06T13:49:22.377Z,24.30
2019-04-06T13:51:54.080Z,24.60
2019-04-06T13:54:31.552Z,24.30
2019-04-06T13:57:00.552Z,24.00
2019-04-06T13:59:29.091Z,23.80
2019-04-06T14:02:01.498Z,24.70
2019-04-06T14:04:29.891Z,25.10
2019-04-06T14:06:56.281Z,25.80
2019-04-06T14:09:41.262Z,26.50
2019-04-06T14:12:26.175Z,27.40
2019-04-06T14:14:54.387Z,28.70
2019-04-06T14:17:22.911Z,29.10
2019-04-06T14:19:54.154Z,29.20
2019-04-06T14:22:22.742Z,29.80
2019-04-06T14:24:51.475Z,30.70
2019-04-06T14:27:25.662Z,31.90
2019-04-06T14:30:02.855Z,31.50
2019-04-06T14:32:48.991Z,31.70
2019-04-06T14:35:32.489Z,30.00
2019-04-06T14:38:01.399Z,31.30
2019-04-06T14:40:43.008Z,30.80
2019-04-06T14:43:11.326Z,32.30
2019-04-06T14:45:56.473Z,30.40
2019-04-06T14:48:30.427Z,31.00
2019-04-06T14:51:12.042Z,30.60
2019-04-06T14:53:57.129Z,31.30
2019-04-06T14:56:28.745Z,30.20
2019-04-06T14:59:15.834Z,30.60
2019-04-06T15:02:01.034Z,29.60
2019-04-06T15:04:29.283Z,31.60
2019-04-06T15:07:11.171Z,31.00
2019-04-06T15:09:39.675Z,29.90
2019-04-06T15:12:11.828Z,30.30
2019-04-06T15:14:41.487Z,30.30
2019-04-06T15:17:27.110Z,30.40
2019-04-06T15:19:57.123Z,30.80
2019-04-06T15:22:25.352Z,30.00
2019-04-06T15:24:56.729Z,30.30
2019-04-06T15:27:25.122Z,29.20
2019-04-06T15:30:06.926Z,30.10
2019-04-06T15:32:52.064Z,32.00
2019-04-06T15:35:36.880Z,31.80
2019-04-06T15:38:13.853Z,31.10
2019-04-06T15:40:59.042Z,32.30
2019-04-06T15:43:39.244Z,31.90
2019-04-06T15:46:10.740Z,31.70
2019-04-06T15:48:55.609Z,32.00
2019-04-06T15:51:40.476Z,32.70
2019-04-06T15:54:21.124Z,32.80
2019-04-06T15:56:58.437Z,31.90
2019-04-06T15:59:36.031Z,29.50
2019-04-06T16:02:16.168Z,29.20
2019-04-06T16:04:44.641Z,28.90
2019-04-06T16:07:29.483Z,28.20
2019-04-06T16:09:55.447Z,26.20
2019-04-06T16:12:35.923Z,25.90
2019-04-06T16:15:07.634Z,25.40
2019-04-06T16:17:34.133Z,24.30
2019-04-06T16:20:06.520Z,23.50
2019-04-06T16:22:51.267Z,23.10
2019-04-06T16:25:27.194Z,22.70
2019-04-06T16:27:54.186Z,22.50
2019-04-06T16:30:21.113Z,22.50
2019-04-06T16:32:58.144Z,22.20
2019-04-06T16:35:43.769Z,21.60
2019-04-06T16:38:14.695Z,21.40
2019-04-06T16:40:42.789Z,20.80
2019-04-06T16:43:11.454Z,20.20
2019-04-06T16:45:55.402Z,19.70
2019-04-06T16:48:27.810Z,19.50
2019-04-06T16:51:14.460Z,19.30
2019-04-06T16:53:51.802Z,19.10
2019-04-06T16:56:31.001Z,19.10
2019-04-06T16:59:06.396Z,18.80
2019-04-06T17:01:43.870Z,18.60
2019-04-06T17:04:15.737Z,18.10
2019-04-06T17:07:02.030Z,18.10
2019-04-06T17:09:31.799Z,17.90
2019-04-06T17:12:06.053Z,17.60
2019-04-06T17:14:34.718Z,17.60
2019-04-06T17:17:06.332Z,17.50
2019-04-06T17:19:51.791Z,17.40
2019-04-06T17:22:29.378Z,17.20
2019-04-06T17:25:14.128Z,16.90
2019-04-06T17:27:42.456Z,16.70
2019-04-06T17:30:12.205Z,16.40
2019-04-06T17:32:58.116Z,16.40
2019-04-06T17:35:32.731Z,16.30
2019-04-06T17:38:10.151Z,16.10
2019-04-06T17:40:44.599Z,16.00
2019-04-06T17:43:16.285Z,15.90
2019-04-06T17:45:44.950Z,15.90
2019-04-06T17:48:20.372Z,15.80
2019-04-06T17:51:02.223Z,15.80
2019-04-06T17:53:30.922Z,15.70
2019-04-06T17:56:17.354Z,15.60
2019-04-06T17:58:46.330Z,15.40
2019-04-06T18:01:16.247Z,15.40
2019-04-06T18:03:50.542Z,15.30
2019-04-06T18:06:18.872Z,15.20
2019-04-06T18:08:56.097Z,15.20
2019-04-06T18:11:28.670Z,15.10
2019-04-06T18:13:55.159Z,15.10
2019-04-06T18:16:25.534Z,15.10
2019-04-06T18:18:52.182Z,15.10
2019-04-06T18:21:18.716Z,15.00
2019-04-06T18:23:45.047Z,15.00
2019-04-06T18:26:11.693Z,15.00
2019-04-06T18:28:38.072Z,15.00
2019-04-06T18:31:24.771Z,14.80
2019-04-06T18:33:56.303Z,14.80
2019-04-06T18:36:25.901Z,14.80
2019-04-06T18:38:58.805Z,14.80
2019-04-06T18:41:26.289Z,14.80
2019-04-06T18:43:56.865Z,14.70
2019-04-06T18:46:23.589Z,14.70
2019-04-06T18:48:50.259Z,14.50
2019-04-06T18:51:16.901Z,14.50
2019-04-06T18:53:43.732Z,14.40
2019-04-06T18:56:10.818Z,14.40
2019-04-06T18:58:38.044Z,14.30
2019-04-06T19:01:05.485Z,14.20
2019-04-06T19:03:40.432Z,14.20
2019-04-06T19:06:07.131Z,14.10
2019-04-06T19:08:34.301Z,14.00
2019-04-06T19:11:01.248Z,13.90
2019-04-06T19:13:27.654Z,13.90
2019-04-06T19:15:55.088Z,13.80
2019-04-06T19:18:21.433Z,13.80
2019-04-06T19:21:18.632Z,13.70
2019-04-06T19:23:45.063Z,13.60
2019-04-06T19:26:11.786Z,13.60
2019-04-06T19:28:38.116Z,13.50
2019-04-06T19:31:04.779Z,13.50
2019-04-06T19:33:31.542Z,13.40
2019-04-06T19:35:58.740Z,13.40
2019-04-06T19:38:25.600Z,13.30
2019-04-06T19:40:52.230Z,13.20
2019-04-06T19:43:18.867Z,13.20
2019-04-06T19:45:45.207Z,13.10
2019-04-06T19:48:11.910Z,13.10
2019-04-06T19:50:38.800Z,13.00
2019-04-06T19:53:05.735Z,13.00
2019-04-06T19:55:32.472Z,12.90
2019-04-06T19:57:59.775Z,12.90
2019-04-06T20:00:30.961Z,12.80
2019-04-06T20:02:57.879Z,12.80
2019-04-06T20:05:27.853Z,12.70
2019-04-06T20:07:54.278Z,12.60
2019-04-06T20:10:20.610Z,12.60
2019-04-06T20:12:47.079Z,12.50
2019-04-06T20:15:14.248Z,12.40
2019-04-06T20:17:40.744Z,12.30
2019-04-06T20:20:09.343Z,12.20
2019-04-06T20:22:36.532Z,12.20
2019-04-06T20:25:05.406Z,12.10
2019-04-06T20:27:32.181Z,12.10
2019-04-06T20:29:58.747Z,12.10
2019-04-06T20:32:25.171Z,12.00
2019-04-06T20:34:51.716Z,12.00
2019-04-06T20:37:19.439Z,12.00
2019-04-06T20:39:46.114Z,11.90
2019-04-06T20:42:13.764Z,11.90
2019-04-06T20:44:40.937Z,11.90
2019-04-06T20:47:07.637Z,11.90
2019-04-06T20:49:34.311Z,11.90
2019-04-06T20:52:00.720Z,11.90
2019-04-06T20:54:27.451Z,11.80
2019-04-06T20:56:58.052Z,11.70
2019-04-06T20:59:22.933Z,11.70
2019-04-06T21:01:49.736Z,11.60
2019-04-06T21:04:16.690Z,11.50
2019-04-06T21:06:43.690Z,11.50
2019-04-06T21:09:12.874Z,11.50
2019-04-06T21:11:39.423Z,11.40
2019-04-06T21:14:05.922Z,11.40
2019-04-06T21:16:32.255Z,11.40
2019-04-06T21:18:58.983Z,11.30
2019-04-06T21:21:25.881Z,11.30
2019-04-06T21:23:52.963Z,11.20
2019-04-06T21:26:19.693Z,11.20
2019-04-06T21:28:46.554Z,11.10
2019-04-06T21:31:14.208Z,11.10
2019-04-06T21:33:40.957Z,11.10
2019-04-06T21:36:07.314Z,11.10
2019-04-06T21:38:33.647Z,11.10
2019-04-06T21:41:00.095Z,11.00
2019-04-06T21:43:27.785Z,11.00
2019-04-06T21:45:54.852Z,10.90
2019-04-06T21:48:22.377Z,10.80
2019-04-06T21:50:49.162Z,10.80
2019-04-06T21:53:15.785Z,10.80
2019-04-06T21:55:42.285Z,10.70
2019-04-06T21:58:08.691Z,10.60
2019-04-06T22:00:37.077Z,10.60
2019-04-06T22:03:06.121Z,10.50
2019-04-06T22:05:32.991Z,10.50
2019-04-06T22:07:59.490Z,10.40
2019-04-06T22:10:26.474Z,10.40
2019-04-06T22:12:53.444Z,10.40
2019-04-06T22:15:20.222Z,10.30
2019-04-06T22:17:46.738Z,10.20
2019-04-06T22:20:13.126Z,10.20
2019-04-06T22:22:40.456Z,10.10
2019-04-06T22:25:07.462Z,10.10
2019-04-06T22:27:34.558Z,10.10
2019-04-06T22:30:01.626Z,10.10
2019-04-06T22:32:28.876Z,10.00
2019-04-06T22:34:55.684Z,10.00
2019-04-06T22:37:22.452Z,10.00
2019-04-06T22:39:49.092Z,9.90
2019-04-06T22:42:15.470Z,9.90
2019-04-06T22:44:41.834Z,9.90
2019-04-06T22:47:08.178Z,9.70
2019-04-06T22:49:34.933Z,9.60
2019-04-06T22:52:01.345Z,9.50
2019-04-06T22:54:27.766Z,9.50
2019-04-06T22:56:54.408Z,9.50
2019-04-06T22:59:21.188Z,9.50
2019-04-06T23:01:47.522Z,9.40
2019-04-06T23:04:19.325Z,9.40
2019-04-06T23:06:48.258Z,9.30
2019-04-06T23:09:15.039Z,9.30
2019-04-06T23:11:41.442Z,9.30
2019-04-06T23:14:07.745Z,9.30
2019-04-06T23:16:34.502Z,9.20
2019-04-06T23:19:01.585Z,9.00
2019-04-06T23:21:27.971Z,8.90
2019-04-06T23:23:54.294Z,8.90
2019-04-06T23:26:21.397Z,9.00
2019-04-06T23:28:49.066Z,9.00
2019-04-06T23:31:16.277Z,9.00
2019-04-06T23:33:43.132Z,9.00
2019-04-06T23:36:09.967Z,9.00
2019-04-06T23:38:36.532Z,9.00
2019-04-06T23:41:03.974Z,9.00
2019-04-06T23:43:31.152Z,8.90
2019-04-06T23:45:58.036Z,8.90
2019-04-06T23:48:24.686Z,8.90
2019-04-06T23:50:51.625Z,8.90
2019-04-06T23:53:18.021Z,8.90
2019-04-06T23:55:44.601Z,8.80
2019-04-06T23:58:11.070Z,8.80
